sensor_id;sensor_type;location;lat;lon;timestamp;temperature;humidity
1461;DHT22;724;49.910;12.530;2023-01-04T00:01:58;-0.90;1.00
1461;DHT22;724;49.910;12.530;2023-01-04T00:04:26;-0.90;1.00
1461;DHT22;724;49.910;12.530;2023-01-04T00:06:53;-0.90;1.00
1461;DHT22;724;49.910;12.530;2023-01-04T00:09:21;-0.90;1.00
1461;DHT22;724;49.910;12.530;2023-01-04T00:11:47;-0.90;1.00
1461;DHT22;724;49.910;12.530;2023-01-04T00:14:14;-0.90;1.00
1461;DHT22;724;49.910;12.530;2023-01-04T00:16:43;-0.90;1.00
1461;DHT22;724;49.910;12.530;2023-01-04T00:19:11;-1.10;1.00
1461;DHT22;724;49.910;12.530;2023-01-04T00:21:39;-1.00;1.00
1461;DHT22;724;49.910;12.530;2023-01-04T00:24:06;-1.00;1.00
1461;DHT22;724;49.910;12.530;2023-01-04T00:26:34;-0.90;1.00
1461;DHT22;724;49.910;12.530;2023-01-04T00:29:04;-0.90;1.00
1461;DHT22;724;49.910;12.530;2023-01-04T00:31:31;-0.90;1.00
1461;DHT22;724;49.910;12.530;2023-01-04T00:33:59;-0.90;3.90
1461;DHT22;724;49.910;12.530;2023-01-04T00:36:27;-1.00;10.30
1461;DHT22;724;49.910;12.530;2023-01-04T00:38:56;-0.90;46.60
1461;DHT22;724;49.910;12.530;2023-01-04T00:41:33;-1.20;1.00
1461;DHT22;724;49.910;12.530;2023-01-04T00:44:00;-1.30;1.00
1461;DHT22;724;49.910;12.530;2023-01-04T00:46:29;-1.40;1.00
1461;DHT22;724;49.910;12.530;2023-01-04T00:48:56;-1.30;3.50
1461;DHT22;724;49.910;12.530;2023-01-04T00:51:23;-1.30;1.00
1461;DHT22;724;49.910;12.530;2023-01-04T00:53:50;-1.20;16.20
1461;DHT22;724;49.910;12.530;2023-01-04T00:56:18;-1.00;99.90
1461;DHT22;724;49.910;12.530;2023-01-04T00:58:45;-0.60;99.90
1461;DHT22;724;49.910;12.530;2023-01-04T01:01:12;-0.40;99.90
1461;DHT22;724;49.910;12.530;2023-01-04T01:03:38;-0.90;99.90
1461;DHT22;724;49.910;12.530;2023-01-04T01:06:06;-1.30;99.90
1461;DHT22;724;49.910;12.530;2023-01-04T01:08:36;-1.40;99.90
1461;DHT22;724;49.910;12.530;2023-01-04T01:11:05;-1.30;99.90
1461;DHT22;724;49.910;12.530;2023-01-04T01:13:34;-1.20;99.90
1461;DHT22;724;49.910;12.530;2023-01-04T01:16:02;-1.20;99.90
1461;DHT22;724;49.910;12.530;2023-01-04T01:18:31;-1.40;99.90
1461;DHT22;724;49.910;12.530;2023-01-04T01:20:57;-1.30;99.90
1461;DHT22;724;49.910;12.530;2023-01-04T01:23:24;-1.20;99.90
1461;DHT22;724;49.910;12.530;2023-01-04T01:25:51;-1.00;99.90
1461;DHT22;724;49.910;12.530;2023-01-04T01:28:17;-0.40;99.90
1461;DHT22;724;49.910;12.530;2023-01-04T01:30:45;0.00;99.90
1461;DHT22;724;49.910;12.530;2023-01-04T01:33:12;0.20;99.90
1461;DHT22;724;49.910;12.530;2023-01-04T01:35:39;0.20;99.90
1461;DHT22;724;49.910;12.530;2023-01-04T01:38:05;0.10;99.90
1461;DHT22;724;49.910;12.530;2023-01-04T01:40:32;0.10;99.90
1461;DHT22;724;49.910;12.530;2023-01-04T01:42:59;0.10;99.90
1461;DHT22;724;49.910;12.530;2023-01-04T01:45:28;0.10;99.90
1461;DHT22;724;49.910;12.530;2023-01-04T01:48:02;0.00;99.90
1461;DHT22;724;49.910;12.530;2023-01-04T01:50:34;0.00;99.90
1461;DHT22;724;49.910;12.530;2023-01-04T01:53:02;0.00;99.90
1461;DHT22;724;49.910;12.530;2023-01-04T01:55:32;-0.20;99.90
1461;DHT22;724;49.910;12.530;2023-01-04T01:58:00;-0.30;99.90
1461;DHT22;724;49.910;12.530;2023-01-04T02:00:28;-0.20;99.90
1461;DHT22;724;49.910;12.530;2023-01-04T02:03:11;-0.40;99.90
1461;DHT22;724;49.910;12.530;2023-01-04T02:05:39;0.10;99.90
1461;DHT22;724;49.910;12.530;2023-01-04T02:08:06;0.30;99.90
1461;DHT22;724;49.910;12.530;2023-01-04T02:10:33;0.40;99.90
1461;DHT22;724;49.910;12.530;2023-01-04T02:13:04;0.60;99.90
1461;DHT22;724;49.910;12.530;2023-01-04T02:15:39;1.10;99.90
1461;DHT22;724;49.910;12.530;2023-01-04T02:18:16;1.20;99.90
1461;DHT22;724;49.910;12.530;2023-01-04T02:20:47;1.40;99.90
1461;DHT22;724;49.910;12.530;2023-01-04T02:26:59;1.40;99.90
1461;DHT22;724;49.910;12.530;2023-01-04T02:32:55;0.90;99.90
1461;DHT22;724;49.910;12.530;2023-01-04T02:35:29;0.60;99.90
1461;DHT22;724;49.910;12.530;2023-01-04T02:38:03;0.20;83.80
1461;DHT22;724;49.910;12.530;2023-01-04T02:40:40;0.00;66.30
1461;DHT22;724;49.910;12.530;2023-01-04T02:43:16;-0.10;99.90
1461;DHT22;724;49.910;12.530;2023-01-04T02:46:04;-0.10;99.90
1461;DHT22;724;49.910;12.530;2023-01-04T02:48:36;-0.10;99.90
1461;DHT22;724;49.910;12.530;2023-01-04T02:51:30;-0.10;99.90
1461;DHT22;724;49.910;12.530;2023-01-04T02:53:59;0.00;99.90
1461;DHT22;724;49.910;12.530;2023-01-04T02:56:40;0.10;99.90
1461;DHT22;724;49.910;12.530;2023-01-04T02:59:32;0.00;99.90
1461;DHT22;724;49.910;12.530;2023-01-04T03:02:10;-0.30;99.90
1461;DHT22;724;49.910;12.530;2023-01-04T03:05:07;-0.30;99.90
1461;DHT22;724;49.910;12.530;2023-01-04T03:08:03;-0.20;99.90
1461;DHT22;724;49.910;12.530;2023-01-04T03:10:36;0.00;99.90
1461;DHT22;724;49.910;12.530;2023-01-04T03:13:07;-0.20;99.90
1461;DHT22;724;49.910;12.530;2023-01-04T03:15:37;-0.20;99.90
1461;DHT22;724;49.910;12.530;2023-01-04T03:18:09;-0.10;99.90
1461;DHT22;724;49.910;12.530;2023-01-04T03:20:38;-0.30;99.90
1461;DHT22;724;49.910;12.530;2023-01-04T03:23:09;-0.30;99.90
1461;DHT22;724;49.910;12.530;2023-01-04T03:25:58;-0.30;99.90
1461;DHT22;724;49.910;12.530;2023-01-04T03:28:44;-0.20;99.90
1461;DHT22;724;49.910;12.530;2023-01-04T03:31:31;-0.40;99.90
1461;DHT22;724;49.910;12.530;2023-01-04T03:34:25;-0.50;99.90
1461;DHT22;724;49.910;12.530;2023-01-04T03:37:14;-0.40;99.90
1461;DHT22;724;49.910;12.530;2023-01-04T03:39:59;-0.30;99.90
1461;DHT22;724;49.910;12.530;2023-01-04T03:42:50;-0.30;99.90
1461;DHT22;724;49.910;12.530;2023-01-04T03:45:42;-0.40;99.90
1461;DHT22;724;49.910;12.530;2023-01-04T03:48:30;-0.30;99.90
1461;DHT22;724;49.910;12.530;2023-01-04T03:51:06;-0.10;99.90
1461;DHT22;724;49.910;12.530;2023-01-04T03:53:46;-0.20;99.90
1461;DHT22;724;49.910;12.530;2023-01-04T03:56:16;-0.20;99.90
1461;DHT22;724;49.910;12.530;2023-01-04T03:58:44;-0.10;99.90
1461;DHT22;724;49.910;12.530;2023-01-04T04:01:11;-0.10;99.90
1461;DHT22;724;49.910;12.530;2023-01-04T04:03:38;-0.10;99.90
1461;DHT22;724;49.910;12.530;2023-01-04T04:06:23;-0.10;99.90
1461;DHT22;724;49.910;12.530;2023-01-04T04:09:08;-0.10;99.90
1461;DHT22;724;49.910;12.530;2023-01-04T04:11:35;-0.30;99.90
1461;DHT22;724;49.910;12.530;2023-01-04T04:14:02;-0.30;99.90
1461;DHT22;724;49.910;12.530;2023-01-04T04:16:28;-0.30;99.90
1461;DHT22;724;49.910;12.530;2023-01-04T04:18:55;-0.50;99.90
1461;DHT22;724;49.910;12.530;2023-01-04T04:21:22;-1.20;99.90
1461;DHT22;724;49.910;12.530;2023-01-04T04:23:49;-1.50;99.90
1461;DHT22;724;49.910;12.530;2023-01-04T04:26:17;-1.50;99.90
1461;DHT22;724;49.910;12.530;2023-01-04T04:28:44;-1.60;99.90
1461;DHT22;724;49.910;12.530;2023-01-04T04:31:10;-1.60;99.90
1461;DHT22;724;49.910;12.530;2023-01-04T04:33:37;-1.50;99.90
1461;DHT22;724;49.910;12.530;2023-01-04T04:36:05;-1.50;99.90
1461;DHT22;724;49.910;12.530;2023-01-04T04:38:32;-1.50;99.90
1461;DHT22;724;49.910;12.530;2023-01-04T04:40:59;-1.60;99.90
1461;DHT22;724;49.910;12.530;2023-01-04T04:43:44;-1.50;99.90
1461;DHT22;724;49.910;12.530;2023-01-04T04:46:11;-1.40;99.90
1461;DHT22;724;49.910;12.530;2023-01-04T04:48:38;-1.00;99.90
1461;DHT22;724;49.910;12.530;2023-01-04T04:51:05;-0.90;99.90
1461;DHT22;724;49.910;12.530;2023-01-04T04:53:32;-0.70;99.90
1461;DHT22;724;49.910;12.530;2023-01-04T04:55:58;-0.60;99.90
1461;DHT22;724;49.910;12.530;2023-01-04T04:58:25;-0.30;99.90
1461;DHT22;724;49.910;12.530;2023-01-04T05:00:53;-0.30;99.90
1461;DHT22;724;49.910;12.530;2023-01-04T05:03:20;-0.30;99.90
1461;DHT22;724;49.910;12.530;2023-01-04T05:05:46;-0.10;99.90
1461;DHT22;724;49.910;12.530;2023-01-04T05:08:13;0.10;99.90
1461;DHT22;724;49.910;12.530;2023-01-04T05:10:40;0.20;99.90
1461;DHT22;724;49.910;12.530;2023-01-04T05:13:07;0.30;99.90
1461;DHT22;724;49.910;12.530;2023-01-04T05:15:37;0.40;99.90
1461;DHT22;724;49.910;12.530;2023-01-04T05:18:06;0.50;99.90
1461;DHT22;724;49.910;12.530;2023-01-04T05:20:33;0.60;99.90
1461;DHT22;724;49.910;12.530;2023-01-04T05:23:00;0.50;99.90
1461;DHT22;724;49.910;12.530;2023-01-04T05:25:27;0.60;99.90
1461;DHT22;724;49.910;12.530;2023-01-04T05:27:54;1.00;99.90
1461;DHT22;724;49.910;12.530;2023-01-04T05:30:21;1.30;99.90
1461;DHT22;724;49.910;12.530;2023-01-04T05:33:07;1.40;99.90
1461;DHT22;724;49.910;12.530;2023-01-04T05:35:34;1.40;99.90
1461;DHT22;724;49.910;12.530;2023-01-04T05:38:01;1.50;99.90
1461;DHT22;724;49.910;12.530;2023-01-04T05:40:28;1.50;99.90
1461;DHT22;724;49.910;12.530;2023-01-04T05:42:54;1.60;99.90
1461;DHT22;724;49.910;12.530;2023-01-04T05:45:22;1.60;99.90
1461;DHT22;724;49.910;12.530;2023-01-04T05:47:49;1.70;99.90
1461;DHT22;724;49.910;12.530;2023-01-04T05:50:18;1.70;99.90
1461;DHT22;724;49.910;12.530;2023-01-04T05:52:45;1.70;99.90
1461;DHT22;724;49.910;12.530;2023-01-04T05:55:12;1.80;99.90
1461;DHT22;724;49.910;12.530;2023-01-04T05:57:39;1.60;99.90
1461;DHT22;724;49.910;12.530;2023-01-04T06:00:09;1.60;99.90
1461;DHT22;724;49.910;12.530;2023-01-04T06:02:36;1.60;99.90
1461;DHT22;724;49.910;12.530;2023-01-04T06:05:03;1.60;99.90
1461;DHT22;724;49.910;12.530;2023-01-04T06:07:31;1.60;99.90
1461;DHT22;724;49.910;12.530;2023-01-04T06:09:58;1.60;99.90
1461;DHT22;724;49.910;12.530;2023-01-04T06:12:25;1.60;99.90
1461;DHT22;724;49.910;12.530;2023-01-04T06:14:52;1.60;99.90
1461;DHT22;724;49.910;12.530;2023-01-04T06:17:19;1.60;99.90
1461;DHT22;724;49.910;12.530;2023-01-04T06:19:46;1.60;99.90
1461;DHT22;724;49.910;12.530;2023-01-04T06:22:12;1.50;99.90
1461;DHT22;724;49.910;12.530;2023-01-04T06:24:40;1.60;99.90
1461;DHT22;724;49.910;12.530;2023-01-04T06:27:07;1.50;99.90
1461;DHT22;724;49.910;12.530;2023-01-04T06:29:34;1.50;99.90
1461;DHT22;724;49.910;12.530;2023-01-04T06:32:01;1.70;99.90
1461;DHT22;724;49.910;12.530;2023-01-04T06:34:27;1.90;99.90
1461;DHT22;724;49.910;12.530;2023-01-04T06:36:54;2.00;99.90
1461;DHT22;724;49.910;12.530;2023-01-04T06:39:21;2.00;99.90
1461;DHT22;724;49.910;12.530;2023-01-04T06:41:49;1.80;99.90
1461;DHT22;724;49.910;12.530;2023-01-04T06:44:16;1.90;99.90
1461;DHT22;724;49.910;12.530;2023-01-04T06:46:43;1.80;99.90
1461;DHT22;724;49.910;12.530;2023-01-04T06:49:09;1.80;99.90
1461;DHT22;724;49.910;12.530;2023-01-04T06:51:38;1.70;99.90
1461;DHT22;724;49.910;12.530;2023-01-04T06:54:04;1.70;99.90
1461;DHT22;724;49.910;12.530;2023-01-04T06:56:31;1.70;99.90
1461;DHT22;724;49.910;12.530;2023-01-04T06:58:59;1.80;99.90
1461;DHT22;724;49.910;12.530;2023-01-04T07:01:26;1.80;99.90
1461;DHT22;724;49.910;12.530;2023-01-04T07:03:53;1.80;99.90
1461;DHT22;724;49.910;12.530;2023-01-04T07:06:19;1.80;99.90
1461;DHT22;724;49.910;12.530;2023-01-04T07:08:46;1.80;99.90
1461;DHT22;724;49.910;12.530;2023-01-04T07:11:13;2.00;99.90
1461;DHT22;724;49.910;12.530;2023-01-04T07:13:40;1.80;99.90
1461;DHT22;724;49.910;12.530;2023-01-04T07:16:08;1.70;99.90
1461;DHT22;724;49.910;12.530;2023-01-04T07:18:35;1.80;99.90
1461;DHT22;724;49.910;12.530;2023-01-04T07:21:02;1.80;99.90
1461;DHT22;724;49.910;12.530;2023-01-04T07:23:30;1.80;99.90
1461;DHT22;724;49.910;12.530;2023-01-04T07:26:00;1.90;99.90
1461;DHT22;724;49.910;12.530;2023-01-04T07:28:27;1.90;99.90
1461;DHT22;724;49.910;12.530;2023-01-04T07:31:12;1.90;99.90
1461;DHT22;724;49.910;12.530;2023-01-04T07:33:39;1.80;99.90
1461;DHT22;724;49.910;12.530;2023-01-04T07:36:06;1.80;99.90
1461;DHT22;724;49.910;12.530;2023-01-04T07:38:33;1.70;99.90
1461;DHT22;724;49.910;12.530;2023-01-04T07:41:00;1.70;99.90
1461;DHT22;724;49.910;12.530;2023-01-04T07:43:27;1.70;99.90
1461;DHT22;724;49.910;12.530;2023-01-04T07:45:54;1.90;99.90
1461;DHT22;724;49.910;12.530;2023-01-04T07:48:22;2.00;99.90
1461;DHT22;724;49.910;12.530;2023-01-04T07:50:48;1.90;99.90
1461;DHT22;724;49.910;12.530;2023-01-04T07:53:15;1.90;99.90
1461;DHT22;724;49.910;12.530;2023-01-04T07:55:43;1.90;99.90
1461;DHT22;724;49.910;12.530;2023-01-04T07:58:09;1.90;99.90
1461;DHT22;724;49.910;12.530;2023-01-04T08:00:36;1.90;99.90
1461;DHT22;724;49.910;12.530;2023-01-04T08:03:03;1.90;99.90
1461;DHT22;724;49.910;12.530;2023-01-04T08:05:33;2.00;99.90
1461;DHT22;724;49.910;12.530;2023-01-04T08:08:00;2.00;99.90
1461;DHT22;724;49.910;12.530;2023-01-04T08:10:26;2.30;99.90
1461;DHT22;724;49.910;12.530;2023-01-04T08:12:53;2.80;99.90
1461;DHT22;724;49.910;12.530;2023-01-04T08:15:20;2.90;99.90
1461;DHT22;724;49.910;12.530;2023-01-04T08:17:46;2.50;59.20
1461;DHT22;724;49.910;12.530;2023-01-04T08:20:13;2.40;88.60
1461;DHT22;724;49.910;12.530;2023-01-04T08:22:41;2.40;15.30
1461;DHT22;724;49.910;12.530;2023-01-04T08:25:08;2.30;22.00
1461;DHT22;724;49.910;12.530;2023-01-04T08:27:35;2.20;92.90
1461;DHT22;724;49.910;12.530;2023-01-04T08:30:02;2.20;99.90
1461;DHT22;724;49.910;12.530;2023-01-04T08:32:29;2.30;99.90
1461;DHT22;724;49.910;12.530;2023-01-04T08:34:56;2.20;64.40
1461;DHT22;724;49.910;12.530;2023-01-04T08:37:23;2.20;27.50
1461;DHT22;724;49.910;12.530;2023-01-04T08:39:51;2.20;27.40
1461;DHT22;724;49.910;12.530;2023-01-04T08:42:17;2.20;29.20
1461;DHT22;724;49.910;12.530;2023-01-04T08:44:44;2.30;44.30
1461;DHT22;724;49.910;12.530;2023-01-04T08:47:11;2.40;1.00
1461;DHT22;724;49.910;12.530;2023-01-04T08:49:37;2.40;1.00
1461;DHT22;724;49.910;12.530;2023-01-04T08:52:04;2.40;1.00
1461;DHT22;724;49.910;12.530;2023-01-04T08:54:33;2.40;1.00
1461;DHT22;724;49.910;12.530;2023-01-04T08:57:01;2.40;1.00
1461;DHT22;724;49.910;12.530;2023-01-04T08:59:28;2.40;1.00
1461;DHT22;724;49.910;12.530;2023-01-04T09:01:54;2.50;1.00
1461;DHT22;724;49.910;12.530;2023-01-04T09:04:21;2.50;1.00
1461;DHT22;724;49.910;12.530;2023-01-04T09:06:48;2.50;1.00
1461;DHT22;724;49.910;12.530;2023-01-04T09:09:15;2.50;1.00
1461;DHT22;724;49.910;12.530;2023-01-04T09:11:41;2.60;1.00
1461;DHT22;724;49.910;12.530;2023-01-04T09:14:09;2.60;99.90
1461;DHT22;724;49.910;12.530;2023-01-04T09:16:38;2.70;99.90
1461;DHT22;724;49.910;12.530;2023-01-04T09:19:05;2.70;99.90
1461;DHT22;724;49.910;12.530;2023-01-04T09:21:32;2.70;99.90
1461;DHT22;724;49.910;12.530;2023-01-04T09:23:59;2.80;99.90
1461;DHT22;724;49.910;12.530;2023-01-04T09:26:26;2.90;99.90
1461;DHT22;724;49.910;12.530;2023-01-04T09:28:54;2.90;92.60
1461;DHT22;724;49.910;12.530;2023-01-04T09:31:24;2.90;72.20
1461;DHT22;724;49.910;12.530;2023-01-04T09:33:52;2.90;1.00
1461;DHT22;724;49.910;12.530;2023-01-04T09:36:19;3.00;1.00
1461;DHT22;724;49.910;12.530;2023-01-04T09:38:48;3.10;1.00
1461;DHT22;724;49.910;12.530;2023-01-04T09:41:21;3.20;1.00
1461;DHT22;724;49.910;12.530;2023-01-04T09:43:51;3.10;1.00
1461;DHT22;724;49.910;12.530;2023-01-04T09:46:28;3.20;1.00
1461;DHT22;724;49.910;12.530;2023-01-04T09:49:19;3.20;1.00
1461;DHT22;724;49.910;12.530;2023-01-04T09:51:54;3.20;1.00
1461;DHT22;724;49.910;12.530;2023-01-04T09:54:27;3.20;1.00
1461;DHT22;724;49.910;12.530;2023-01-04T09:56:56;3.30;1.00
1461;DHT22;724;49.910;12.530;2023-01-04T09:59:28;3.30;1.00
1461;DHT22;724;49.910;12.530;2023-01-04T10:02:00;3.20;1.00
1461;DHT22;724;49.910;12.530;2023-01-04T10:04:39;3.20;1.00
1461;DHT22;724;49.910;12.530;2023-01-04T10:07:13;3.20;1.00
1461;DHT22;724;49.910;12.530;2023-01-04T10:09:42;3.20;1.00
1461;DHT22;724;49.910;12.530;2023-01-04T10:12:19;3.20;1.00
1461;DHT22;724;49.910;12.530;2023-01-04T10:18:13;3.20;99.90
1461;DHT22;724;49.910;12.530;2023-01-04T10:20:52;3.20;99.90
1461;DHT22;724;49.910;12.530;2023-01-04T10:23:32;3.30;99.90
1461;DHT22;724;49.910;12.530;2023-01-04T10:26:09;3.30;99.90
1461;DHT22;724;49.910;12.530;2023-01-04T10:28:50;3.30;99.90
1461;DHT22;724;49.910;12.530;2023-01-04T10:31:25;3.30;99.90
1461;DHT22;724;49.910;12.530;2023-01-04T10:34:00;3.30;1.00
1461;DHT22;724;49.910;12.530;2023-01-04T10:36:30;3.40;1.00
1461;DHT22;724;49.910;12.530;2023-01-04T10:38:59;3.50;99.90
1461;DHT22;724;49.910;12.530;2023-01-04T10:41:30;3.60;1.00
1461;DHT22;724;49.910;12.530;2023-01-04T10:44:04;3.70;1.00
1461;DHT22;724;49.910;12.530;2023-01-04T10:46:37;3.70;1.00
1461;DHT22;724;49.910;12.530;2023-01-04T10:49:14;3.70;1.00
1461;DHT22;724;49.910;12.530;2023-01-04T10:51:46;3.70;1.00
1461;DHT22;724;49.910;12.530;2023-01-04T10:54:22;3.70;1.00
1461;DHT22;724;49.910;12.530;2023-01-04T10:56:58;3.80;99.90
1461;DHT22;724;49.910;12.530;2023-01-04T10:59:36;3.70;99.90
1461;DHT22;724;49.910;12.530;2023-01-04T11:02:14;3.70;99.90
1461;DHT22;724;49.910;12.530;2023-01-04T11:04:48;3.70;99.90
1461;DHT22;724;49.910;12.530;2023-01-04T11:07:20;3.70;99.90
1461;DHT22;724;49.910;12.530;2023-01-04T11:09:51;3.70;99.90
1461;DHT22;724;49.910;12.530;2023-01-04T11:12:21;3.70;1.00
1461;DHT22;724;49.910;12.530;2023-01-04T11:14:48;3.70;1.00
1461;DHT22;724;49.910;12.530;2023-01-04T11:17:16;3.70;1.00
1461;DHT22;724;49.910;12.530;2023-01-04T11:19:45;3.70;1.00
1461;DHT22;724;49.910;12.530;2023-01-04T11:22:14;3.70;1.00
1461;DHT22;724;49.910;12.530;2023-01-04T11:24:45;3.70;1.00
1461;DHT22;724;49.910;12.530;2023-01-04T11:27:14;3.70;1.00
1461;DHT22;724;49.910;12.530;2023-01-04T11:29:47;3.60;1.00
1461;DHT22;724;49.910;12.530;2023-01-04T11:32:19;3.70;1.00
1461;DHT22;724;49.910;12.530;2023-01-04T11:34:49;3.70;99.90
1461;DHT22;724;49.910;12.530;2023-01-04T11:37:25;3.70;99.90
1461;DHT22;724;49.910;12.530;2023-01-04T11:40:19;3.70;99.90
1461;DHT22;724;49.910;12.530;2023-01-04T11:42:48;3.70;99.90
1461;DHT22;724;49.910;12.530;2023-01-04T11:45:18;3.70;99.90
1461;DHT22;724;49.910;12.530;2023-01-04T11:47:50;3.70;99.90
1461;DHT22;724;49.910;12.530;2023-01-04T11:50:38;3.70;1.00
1461;DHT22;724;49.910;12.530;2023-01-04T11:53:36;3.80;1.00
1461;DHT22;724;49.910;12.530;2023-01-04T11:56:26;3.80;1.00
1461;DHT22;724;49.910;12.530;2023-01-04T11:59:14;3.80;1.00
1461;DHT22;724;49.910;12.530;2023-01-04T12:01:42;3.80;1.00
1461;DHT22;724;49.910;12.530;2023-01-04T12:04:23;3.80;1.00
1461;DHT22;724;49.910;12.530;2023-01-04T12:06:54;3.90;1.00
1461;DHT22;724;49.910;12.530;2023-01-04T12:09:21;3.80;1.00
1461;DHT22;724;49.910;12.530;2023-01-04T12:11:50;3.90;1.00
1461;DHT22;724;49.910;12.530;2023-01-04T12:14:20;3.80;1.00
1461;DHT22;724;49.910;12.530;2023-01-04T12:16:52;3.90;1.00
1461;DHT22;724;49.910;12.530;2023-01-04T12:19:23;3.90;1.00
1461;DHT22;724;49.910;12.530;2023-01-04T12:21:56;3.80;1.00
1461;DHT22;724;49.910;12.530;2023-01-04T12:24:25;3.80;1.00
1461;DHT22;724;49.910;12.530;2023-01-04T12:26:52;3.80;99.90
1461;DHT22;724;49.910;12.530;2023-01-04T12:29:43;3.80;99.90
1461;DHT22;724;49.910;12.530;2023-01-04T12:32:42;3.80;99.90
1461;DHT22;724;49.910;12.530;2023-01-04T12:38:10;3.80;99.90
1461;DHT22;724;49.910;12.530;2023-01-04T12:40:54;3.80;99.90
1461;DHT22;724;49.910;12.530;2023-01-04T12:43:35;3.90;99.90
1461;DHT22;724;49.910;12.530;2023-01-04T12:46:38;3.80;99.90
1461;DHT22;724;49.910;12.530;2023-01-04T12:49:51;3.90;99.90
1461;DHT22;724;49.910;12.530;2023-01-04T12:52:44;3.90;99.90
1461;DHT22;724;49.910;12.530;2023-01-04T12:55:53;3.90;99.90
1461;DHT22;724;49.910;12.530;2023-01-04T12:58:41;3.90;99.90
1461;DHT22;724;49.910;12.530;2023-01-04T13:01:23;3.90;99.90
1461;DHT22;724;49.910;12.530;2023-01-04T13:03:55;3.90;99.90
1461;DHT22;724;49.910;12.530;2023-01-04T13:06:25;4.00;99.90
1461;DHT22;724;49.910;12.530;2023-01-04T13:08:53;4.00;99.90
1461;DHT22;724;49.910;12.530;2023-01-04T13:14:18;4.00;99.90
1461;DHT22;724;49.910;12.530;2023-01-04T13:16:56;4.10;99.90
1461;DHT22;724;49.910;12.530;2023-01-04T13:19:29;4.10;99.90
1461;DHT22;724;49.910;12.530;2023-01-04T13:21:57;4.10;99.90
1461;DHT22;724;49.910;12.530;2023-01-04T13:24:28;4.10;99.90
1461;DHT22;724;49.910;12.530;2023-01-04T13:27:03;4.10;99.90
1461;DHT22;724;49.910;12.530;2023-01-04T13:29:34;4.10;99.90
1461;DHT22;724;49.910;12.530;2023-01-04T13:32:02;4.20;99.90
1461;DHT22;724;49.910;12.530;2023-01-04T13:34:31;4.20;99.90
1461;DHT22;724;49.910;12.530;2023-01-04T13:37:04;4.20;99.90
1461;DHT22;724;49.910;12.530;2023-01-04T13:39:32;4.20;99.90
1461;DHT22;724;49.910;12.530;2023-01-04T13:42:01;4.20;99.90
1461;DHT22;724;49.910;12.530;2023-01-04T13:44:52;4.20;99.90
1461;DHT22;724;49.910;12.530;2023-01-04T13:47:22;4.20;99.90
1461;DHT22;724;49.910;12.530;2023-01-04T13:49:49;4.30;99.90
1461;DHT22;724;49.910;12.530;2023-01-04T13:52:21;4.30;99.90
1461;DHT22;724;49.910;12.530;2023-01-04T13:54:49;4.40;99.90
1461;DHT22;724;49.910;12.530;2023-01-04T13:57:18;4.40;99.90
1461;DHT22;724;49.910;12.530;2023-01-04T13:59:47;4.40;99.90
1461;DHT22;724;49.910;12.530;2023-01-04T14:02:16;4.50;99.90
1461;DHT22;724;49.910;12.530;2023-01-04T14:04:44;4.50;99.90
1461;DHT22;724;49.910;12.530;2023-01-04T14:07:18;4.50;99.90
1461;DHT22;724;49.910;12.530;2023-01-04T14:09:49;4.50;99.90
1461;DHT22;724;49.910;12.530;2023-01-04T14:12:21;4.50;99.90
1461;DHT22;724;49.910;12.530;2023-01-04T14:14:51;4.60;99.90
1461;DHT22;724;49.910;12.530;2023-01-04T14:17:22;4.60;99.90
1461;DHT22;724;49.910;12.530;2023-01-04T14:19:53;4.60;99.90
1461;DHT22;724;49.910;12.530;2023-01-04T14:22:33;4.60;99.90
1461;DHT22;724;49.910;12.530;2023-01-04T14:25:29;4.50;99.90
1461;DHT22;724;49.910;12.530;2023-01-04T14:27:49;4.60;99.90
1461;DHT22;724;49.910;12.530;2023-01-04T14:30:23;4.60;99.90
1461;DHT22;724;49.910;12.530;2023-01-04T14:32:55;4.60;99.90
1461;DHT22;724;49.910;12.530;2023-01-04T14:35:24;4.60;99.90
1461;DHT22;724;49.910;12.530;2023-01-04T14:37:52;4.60;99.90
1461;DHT22;724;49.910;12.530;2023-01-04T14:40:24;4.60;99.90
1461;DHT22;724;49.910;12.530;2023-01-04T14:42:53;4.60;99.90
1461;DHT22;724;49.910;12.530;2023-01-04T14:45:20;4.70;99.90
1461;DHT22;724;49.910;12.530;2023-01-04T14:47:46;4.70;99.90
1461;DHT22;724;49.910;12.530;2023-01-04T14:50:14;4.60;99.90
1461;DHT22;724;49.910;12.530;2023-01-04T14:52:49;4.60;99.90
1461;DHT22;724;49.910;12.530;2023-01-04T14:55:16;4.70;99.90
1461;DHT22;724;49.910;12.530;2023-01-04T14:57:43;4.70;99.90
1461;DHT22;724;49.910;12.530;2023-01-04T15:00:14;4.70;99.90
1461;DHT22;724;49.910;12.530;2023-01-04T15:02:41;4.70;99.90
1461;DHT22;724;49.910;12.530;2023-01-04T15:05:10;4.70;99.90
1461;DHT22;724;49.910;12.530;2023-01-04T15:07:38;4.80;99.90
1461;DHT22;724;49.910;12.530;2023-01-04T15:10:18;4.80;99.90
1461;DHT22;724;49.910;12.530;2023-01-04T15:12:46;4.90;99.90
1461;DHT22;724;49.910;12.530;2023-01-04T15:15:14;4.90;99.90
1461;DHT22;724;49.910;12.530;2023-01-04T15:17:41;4.90;99.90
1461;DHT22;724;49.910;12.530;2023-01-04T15:20:08;4.90;99.90
1461;DHT22;724;49.910;12.530;2023-01-04T15:22:36;4.90;99.90
1461;DHT22;724;49.910;12.530;2023-01-04T15:25:04;5.00;99.90
1461;DHT22;724;49.910;12.530;2023-01-04T15:27:31;5.00;99.90
1461;DHT22;724;49.910;12.530;2023-01-04T15:29:58;5.00;99.90
1461;DHT22;724;49.910;12.530;2023-01-04T15:32:26;5.00;99.90
1461;DHT22;724;49.910;12.530;2023-01-04T15:34:53;5.00;99.90
1461;DHT22;724;49.910;12.530;2023-01-04T15:37:19;5.00;99.90
1461;DHT22;724;49.910;12.530;2023-01-04T15:39:46;5.00;99.90
1461;DHT22;724;49.910;12.530;2023-01-04T15:42:13;5.00;99.90
1461;DHT22;724;49.910;12.530;2023-01-04T15:44:57;5.00;99.90
1461;DHT22;724;49.910;12.530;2023-01-04T15:47:27;5.10;99.90
1461;DHT22;724;49.910;12.530;2023-01-04T15:49:54;5.10;99.90
1461;DHT22;724;49.910;12.530;2023-01-04T15:52:21;5.10;99.90
1461;DHT22;724;49.910;12.530;2023-01-04T15:54:48;5.20;99.90
1461;DHT22;724;49.910;12.530;2023-01-04T15:57:14;5.10;99.90
1461;DHT22;724;49.910;12.530;2023-01-04T15:59:41;5.20;99.90
1461;DHT22;724;49.910;12.530;2023-01-04T16:02:09;5.20;99.90
1461;DHT22;724;49.910;12.530;2023-01-04T16:04:38;5.20;99.90
1461;DHT22;724;49.910;12.530;2023-01-04T16:07:05;5.30;99.90
1461;DHT22;724;49.910;12.530;2023-01-04T16:09:32;5.30;99.90
1461;DHT22;724;49.910;12.530;2023-01-04T16:11:58;5.30;99.90
1461;DHT22;724;49.910;12.530;2023-01-04T16:14:43;5.30;99.90
1461;DHT22;724;49.910;12.530;2023-01-04T16:17:09;5.30;99.90
1461;DHT22;724;49.910;12.530;2023-01-04T16:19:37;5.30;99.90
1461;DHT22;724;49.910;12.530;2023-01-04T16:22:04;5.30;99.90
1461;DHT22;724;49.910;12.530;2023-01-04T16:24:31;5.30;99.90
1461;DHT22;724;49.910;12.530;2023-01-04T16:26:58;5.30;99.90
1461;DHT22;724;49.910;12.530;2023-01-04T16:29:24;5.30;99.90
1461;DHT22;724;49.910;12.530;2023-01-04T16:31:51;5.40;99.90
1461;DHT22;724;49.910;12.530;2023-01-04T16:34:18;5.30;99.90
1461;DHT22;724;49.910;12.530;2023-01-04T16:36:47;5.40;99.90
1461;DHT22;724;49.910;12.530;2023-01-04T16:39:14;5.40;99.90
1461;DHT22;724;49.910;12.530;2023-01-04T16:41:40;5.40;99.90
1461;DHT22;724;49.910;12.530;2023-01-04T16:44:08;5.40;99.90
1461;DHT22;724;49.910;12.530;2023-01-04T16:46:37;5.40;99.90
1461;DHT22;724;49.910;12.530;2023-01-04T16:49:10;5.40;99.90
1461;DHT22;724;49.910;12.530;2023-01-04T16:51:39;5.40;99.90
1461;DHT22;724;49.910;12.530;2023-01-04T16:54:10;5.50;99.90
1461;DHT22;724;49.910;12.530;2023-01-04T16:56:37;5.50;99.90
1461;DHT22;724;49.910;12.530;2023-01-04T16:59:04;5.50;99.90